createdAt,value
2022-12-27T00:03:30.283Z,101169.00
2022-12-27T00:08:31.609Z,101172.50
2022-12-27T00:13:33.009Z,101170.09
2022-12-27T00:18:34.344Z,101166.97
2022-12-27T00:23:38.318Z,101179.25
2022-12-27T00:28:39.713Z,101191.69
2022-12-27T00:33:42.953Z,101197.06
2022-12-27T00:38:44.917Z,101188.38
2022-12-27T00:43:46.786Z,101198.56
2022-12-27T00:48:48.146Z,101203.06
2022-12-27T00:53:50.882Z,101210.81
2022-12-27T00:58:57.459Z,101206.09
2022-12-27T01:03:59.327Z,101202.00
2022-12-27T01:09:02.411Z,101212.06
2022-12-27T01:14:05.286Z,101213.38
2022-12-27T01:19:06.732Z,101224.66
2022-12-27T01:24:08.164Z,101218.59
2022-12-27T01:29:12.762Z,101236.41
2022-12-27T01:34:14.276Z,101237.13
2022-12-27T01:39:16.000Z,101233.13
2022-12-27T01:44:38.703Z,101235.94
2022-12-27T01:49:50.769Z,101237.28
2022-12-27T01:54:57.051Z,101234.50
2022-12-27T01:59:58.585Z,101239.56
2022-12-27T02:05:00.162Z,101243.78
2022-12-27T02:10:03.211Z,101251.78
2022-12-27T02:15:04.992Z,101261.28
2022-12-27T02:20:15.846Z,101269.28
2022-12-27T02:25:50.559Z,101267.34
2022-12-27T02:31:04.131Z,101262.63
2022-12-27T02:36:10.552Z,101271.69
2022-12-27T02:41:30.927Z,101280.78
2022-12-27T02:46:51.830Z,101284.69
2022-12-27T02:52:25.263Z,101297.75
2022-12-27T02:57:43.339Z,101307.38
2022-12-27T03:03:13.523Z,101302.88
2022-12-27T03:08:28.235Z,101294.50
2022-12-27T03:14:01.240Z,101290.00
2022-12-27T03:19:39.565Z,101283.81
2022-12-27T03:25:00.439Z,101280.31
2022-12-27T03:30:25.528Z,101275.00
2022-12-27T03:35:28.663Z,101286.72
2022-12-27T03:41:15.926Z,101288.91
2022-12-27T03:46:38.283Z,101293.06
2022-12-27T03:51:48.037Z,101293.06
2022-12-27T03:56:49.374Z,101299.97
2022-12-27T04:01:50.771Z,101297.78
2022-12-27T04:06:52.160Z,101288.78
2022-12-27T04:12:12.190Z,101290.25
2022-12-27T04:17:32.262Z,101296.91
2022-12-27T04:22:51.937Z,101294.13
2022-12-27T04:28:11.629Z,101304.78
2022-12-27T04:33:31.458Z,101292.38
2022-12-27T04:38:32.812Z,101297.13
2022-12-27T04:43:52.909Z,101298.19
2022-12-27T04:49:12.652Z,101303.38
2022-12-27T04:54:42.655Z,101308.22
2022-12-27T05:00:02.707Z,101305.09
2022-12-27T05:05:04.291Z,101321.09
2022-12-27T05:10:25.315Z,101322.03
2022-12-27T05:15:26.853Z,101321.19
2022-12-27T05:20:28.209Z,101330.75
2022-12-27T05:25:35.227Z,101335.81
2022-12-27T05:30:38.501Z,101335.50
2022-12-27T05:35:40.327Z,101349.25
2022-12-27T05:40:41.713Z,101344.59
2022-12-27T05:45:43.064Z,101349.72
2022-12-27T05:50:44.545Z,101356.81
2022-12-27T05:55:54.124Z,101359.63
2022-12-27T06:00:55.736Z,101367.00
2022-12-27T06:06:01.800Z,101372.22
2022-12-27T06:11:17.538Z,101365.91
2022-12-27T06:16:20.674Z,101382.72
2022-12-27T06:21:22.300Z,101393.91
2022-12-27T06:26:26.077Z,101404.69
2022-12-27T06:31:28.333Z,101406.94
2022-12-27T06:36:30.309Z,101412.50
2022-12-27T06:41:31.690Z,101399.91
2022-12-27T06:46:33.006Z,101392.47
2022-12-27T06:51:34.414Z,101398.38
2022-12-27T06:56:35.776Z,101406.25
2022-12-27T07:01:37.296Z,101411.69
2022-12-27T07:06:38.721Z,101408.16
2022-12-27T07:11:40.185Z,101431.94
2022-12-27T07:16:41.572Z,101435.50
2022-12-27T07:21:43.015Z,101434.13
2022-12-27T07:26:44.388Z,101442.84
2022-12-27T07:31:45.837Z,101443.09
2022-12-27T07:36:47.583Z,101444.03
2022-12-27T07:41:48.926Z,101444.88
2022-12-27T07:46:51.066Z,101456.41
2022-12-27T07:51:52.439Z,101465.88
2022-12-27T07:56:53.868Z,101482.03
2022-12-27T08:02:04.286Z,101486.28
2022-12-27T08:07:11.718Z,101491.72
2022-12-27T08:12:13.935Z,101497.56
2022-12-27T08:17:22.335Z,101481.59
2022-12-27T08:28:39.204Z,101484.97
2022-12-27T08:33:41.857Z,101489.97
2022-12-27T08:38:43.193Z,101499.31
2022-12-27T08:43:44.531Z,101498.16
2022-12-27T08:48:50.010Z,101502.06
2022-12-27T08:53:51.369Z,101495.72
2022-12-27T08:58:52.854Z,101496.00
2022-12-27T09:03:54.550Z,101495.06
2022-12-27T09:08:56.740Z,101507.72
2022-12-27T09:14:00.577Z,101503.72
2022-12-27T09:19:03.875Z,101509.38
2022-12-27T09:24:05.384Z,101513.91
2022-12-27T09:29:06.759Z,101513.22
2022-12-27T09:34:10.449Z,101507.63
2022-12-27T09:39:13.643Z,101506.41
2022-12-27T09:44:36.470Z,101511.78
2022-12-27T09:49:48.206Z,101516.63
2022-12-27T09:55:05.786Z,101525.28
2022-12-27T10:00:15.990Z,101523.13
2022-12-27T10:05:28.979Z,101512.38
2022-12-27T10:11:08.772Z,101513.50
2022-12-27T10:16:50.307Z,101518.63
2022-12-27T10:22:16.234Z,101521.06
2022-12-27T10:27:28.859Z,101517.78
2022-12-27T10:32:30.172Z,101517.31
2022-12-27T10:37:31.738Z,101522.31
2022-12-27T10:42:41.507Z,101516.09
2022-12-27T10:47:42.985Z,101520.84
2022-12-27T10:52:44.309Z,101520.84
2022-12-27T10:57:45.669Z,101517.69
2022-12-27T11:02:55.408Z,101502.88
2022-12-27T11:07:57.610Z,101502.97
2022-12-27T11:13:06.442Z,101510.63
2022-12-27T11:18:16.661Z,101509.28
2022-12-27T11:23:20.758Z,101510.47
2022-12-27T11:28:45.829Z,101512.44
2022-12-27T11:33:47.139Z,101506.44
2022-12-27T11:38:50.188Z,101494.53
2022-12-27T11:43:57.375Z,101498.78
2022-12-27T11:48:58.954Z,101500.22
2022-12-27T11:54:30.299Z,101504.94
2022-12-27T11:59:53.360Z,101500.13
2022-12-27T12:05:07.590Z,101498.13
2022-12-27T12:10:48.225Z,101477.44
2022-12-27T12:16:03.608Z,101475.38
2022-12-27T12:21:25.535Z,101478.88
2022-12-27T12:26:35.458Z,101478.03
2022-12-27T12:32:05.853Z,101476.69
2022-12-27T12:37:36.978Z,101471.66
2022-12-27T12:43:00.533Z,101471.78
2022-12-27T12:48:12.556Z,101463.81
2022-12-27T12:53:50.704Z,101472.25
2022-12-27T12:58:57.604Z,101479.75
2022-12-27T13:04:35.689Z,101477.53
2022-12-27T13:09:51.291Z,101476.00
2022-12-27T13:15:17.437Z,101471.47
2022-12-27T13:20:57.372Z,101467.50
2022-12-27T13:26:23.950Z,101458.66
2022-12-27T13:31:54.234Z,101456.16
2022-12-27T13:37:15.841Z,101451.97
2022-12-27T13:42:56.087Z,101451.94
2022-12-27T13:48:09.217Z,101441.06
2022-12-27T13:53:23.932Z,101436.28
2022-12-27T13:58:34.344Z,101435.88
2022-12-27T14:04:01.887Z,101437.13
2022-12-27T14:09:16.953Z,101436.56
2022-12-27T14:14:20.387Z,101424.19
2022-12-27T14:19:49.464Z,101431.06
2022-12-27T14:25:35.951Z,101432.84
2022-12-27T14:30:58.629Z,101437.78
2022-12-27T14:36:21.163Z,101430.88
2022-12-27T14:42:00.161Z,101421.16
2022-12-27T14:47:38.927Z,101422.41
2022-12-27T14:53:18.452Z,101430.09
2022-12-27T14:58:53.491Z,101431.75
2022-12-27T15:04:08.876Z,101442.31
2022-12-27T15:09:45.459Z,101441.00
2022-12-27T15:14:51.533Z,101437.59
2022-12-27T15:20:44.298Z,101442.84
2022-12-27T15:26:07.583Z,101440.94
2022-12-27T15:31:31.230Z,101432.84
2022-12-27T15:36:39.058Z,101432.16
2022-12-27T15:41:46.190Z,101430.38
2022-12-27T15:47:15.593Z,101424.00
2022-12-27T15:52:31.339Z,101423.03
2022-12-27T15:57:53.779Z,101427.06
2022-12-27T16:02:57.630Z,101425.34
2022-12-27T16:07:58.964Z,101426.88
2022-12-27T16:13:09.433Z,101413.88
2022-12-27T16:18:51.356Z,101409.16
2022-12-27T16:24:04.046Z,101403.22
2022-12-27T16:29:13.203Z,101403.75
2022-12-27T16:34:23.320Z,101401.59
2022-12-27T16:39:40.739Z,101403.94
2022-12-27T16:44:52.675Z,101397.41
2022-12-27T16:50:25.307Z,101392.91
2022-12-27T16:55:48.578Z,101397.47
2022-12-27T17:00:52.574Z,101402.44
2022-12-27T17:11:31.413Z,101400.88
2022-12-27T17:16:41.885Z,101395.44
2022-12-27T17:21:45.695Z,101393.97
2022-12-27T17:27:08.019Z,101394.47
2022-12-27T17:32:24.143Z,101379.81
2022-12-27T17:37:56.684Z,101371.19
2022-12-27T17:44:03.155Z,101375.22
2022-12-27T17:49:07.720Z,101369.03
2022-12-27T17:54:57.299Z,101369.59
2022-12-27T17:59:59.807Z,101369.47
2022-12-27T18:05:05.940Z,101360.84
2022-12-27T18:10:18.176Z,101343.69
2022-12-27T18:15:22.573Z,101344.06
2022-12-27T18:20:26.942Z,101335.72
2022-12-27T18:25:43.271Z,101350.88
2022-12-27T18:30:53.651Z,101346.22
2022-12-27T18:35:55.253Z,101341.22
2022-12-27T18:41:11.323Z,101334.91
2022-12-27T18:46:23.756Z,101327.84
2022-12-27T18:51:43.380Z,101326.03
2022-12-27T18:56:44.966Z,101331.66
2022-12-27T19:01:47.703Z,101329.44
2022-12-27T19:06:56.616Z,101328.47
2022-12-27T19:12:00.893Z,101328.59
2022-12-27T19:17:08.737Z,101325.19
2022-12-27T19:22:30.730Z,101311.84
2022-12-27T19:27:32.256Z,101303.09
2022-12-27T19:32:35.388Z,101296.91
2022-12-27T19:37:36.813Z,101294.03
2022-12-27T19:42:39.456Z,101293.47
2022-12-27T19:47:40.830Z,101277.94
2022-12-27T19:52:43.680Z,101270.81
2022-12-27T19:57:45.019Z,101268.66
2022-12-27T20:02:46.694Z,101261.28
2022-12-27T20:07:48.156Z,101267.56
2022-12-27T20:12:49.523Z,101258.59
2022-12-27T20:17:51.260Z,101271.81
2022-12-27T20:22:52.609Z,101247.06
2022-12-27T20:27:54.027Z,101247.91
2022-12-27T20:32:55.340Z,101233.34
2022-12-27T20:37:56.954Z,101238.59
2022-12-27T20:42:58.904Z,101235.94
2022-12-27T20:48:00.240Z,101224.03
2022-12-27T20:53:01.617Z,101229.00
2022-12-27T20:58:03.656Z,101233.59
2022-12-27T21:03:05.071Z,101217.16
2022-12-27T21:08:06.552Z,101224.53
2022-12-27T21:13:07.916Z,101213.81
2022-12-27T21:18:09.268Z,101222.50
2022-12-27T21:23:10.602Z,101218.19
2022-12-27T21:28:11.917Z,101221.47
2022-12-27T21:33:13.217Z,101207.13
2022-12-27T21:38:14.539Z,101198.56
2022-12-27T21:43:15.858Z,101193.28
2022-12-27T21:48:17.200Z,101189.25
2022-12-27T21:53:19.430Z,101182.13
2022-12-27T21:58:20.740Z,101173.59
2022-12-27T22:03:22.227Z,101174.03
2022-12-27T22:08:23.736Z,101165.47
2022-12-27T22:13:25.183Z,101156.59
2022-12-27T22:18:26.930Z,101141.84
2022-12-27T22:23:37.042Z,101142.81
2022-12-27T22:28:39.167Z,101142.78
2022-12-27T22:33:40.840Z,101137.44
2022-12-27T22:38:42.244Z,101137.84
2022-12-27T22:43:49.455Z,101135.00
2022-12-27T22:48:57.035Z,101140.34
2022-12-27T22:53:59.681Z,101153.31
2022-12-27T22:59:01.659Z,101132.25
2022-12-27T23:04:05.261Z,101121.94
2022-12-27T23:09:07.261Z,101133.50
2022-12-27T23:14:14.412Z,101126.28
2022-12-27T23:19:19.374Z,101116.59
2022-12-27T23:24:20.685Z,101114.81
2022-12-27T23:29:22.085Z,101107.09
2022-12-27T23:34:28.052Z,101097.53
2022-12-27T23:39:29.901Z,101093.72
2022-12-27T23:44:34.078Z,101089.06
2022-12-27T23:49:36.191Z,101078.31
2022-12-27T23:54:37.516Z,101071.09
2022-12-27T23:59:38.841Z,101060.41
